Flight Number: EUR1532 Duration: 2:00
Departure: Gatwick Airport (EGKK) at 06:00 Distance: 443 Nm
Arrival: Barra Airport (EGPR) at 08:00 Equipment: B1900D

Weather Information
London / Gatwick Airport, United Kingdom (EGKK) 51-09N 000-11W 0M Oct 19, 2018 - 02:50 PM EDT / 2018.10.19 1850 UTC
Wind: from the SSW (210 degrees) at 3 MPH (3 KT):0
Visibility: greater than 7 mile(s):0 Temperature: 48 F (9 C) Dew Point: 44 F (7 C) Relative Humidity: 87% Pressure (altimeter): 30.36 in. Hg (1028 hPa)
ob: EGKK 191850Z 21003KT CAVOK 09/07 Q1028 cycle: 19
Sunrise: 06:35 Sunset: 16:55 (UTC)

404 Not Found

Not Found

The requested URL /data/observations/metar/decoded/EGPR.TXT was not found on this server.


Sunrise: 07:17 Sunset: 17:12 (UTC)

TAF: 404 Not Found

Not Found

The requested URL /data/forecasts/taf/stations/EGPR.TXT was not found on this server.



Previous Pireps for this route
Date Aircraft Flight time Fuel used Landing rate On time
2015-02-19DHC801.541760-625Charter
2015-05-27A32101.207824-215Charter
2016-10-11B1900D02.001718-205No
2018-04-04B1900D2.1619950Yes
(pireps marked green are flown by you)

Route map